createdAt,value
2023-05-05T00:00:30.255Z,4.80
2023-05-05T00:03:12.828Z,4.84
2023-05-05T00:05:40.679Z,4.66
2023-05-05T00:08:08.484Z,4.81
2023-05-05T00:10:36.783Z,4.69
2023-05-05T00:13:05.092Z,4.48
2023-05-05T00:15:33.100Z,4.57
2023-05-05T00:18:00.464Z,4.48
2023-05-05T00:20:28.213Z,4.57
2023-05-05T00:22:55.363Z,4.46
2023-05-05T00:25:22.943Z,4.39
2023-05-05T00:27:50.739Z,4.20
2023-05-05T00:30:18.620Z,4.13
2023-05-05T00:32:48.825Z,4.00
2023-05-05T00:35:17.979Z,4.01
2023-05-05T00:37:45.254Z,3.98
2023-05-05T00:40:13.416Z,4.07
2023-05-05T00:42:49.287Z,3.91
2023-05-05T00:45:18.453Z,3.77
2023-05-05T00:47:49.103Z,3.62
2023-05-05T00:50:24.626Z,3.51
2023-05-05T00:52:55.255Z,3.42
2023-05-05T00:55:23.861Z,3.27
2023-05-05T00:57:51.342Z,3.16
2023-05-05T01:00:19.100Z,3.12
2023-05-05T01:02:46.377Z,3.10
2023-05-05T01:05:16.522Z,3.25
2023-05-05T01:07:55.481Z,2.97
2023-05-05T01:10:38.608Z,3.22
2023-05-05T01:13:05.764Z,3.19
2023-05-05T01:15:48.742Z,3.22
2023-05-05T01:18:41.794Z,3.23
2023-05-05T01:21:17.168Z,3.06
2023-05-05T01:23:56.521Z,3.07
2023-05-05T01:26:42.920Z,3.03
2023-05-05T01:29:54.510Z,3.11
2023-05-05T01:32:31.906Z,2.99
2023-05-05T01:35:08.432Z,2.93
2023-05-05T01:37:53.410Z,2.89
2023-05-05T01:40:26.202Z,2.90
2023-05-05T01:42:55.942Z,2.92
2023-05-05T01:45:26.745Z,2.83
2023-05-05T01:48:00.279Z,2.91
2023-05-05T01:50:29.351Z,2.81
2023-05-05T01:55:31.178Z,2.58
2023-05-05T01:58:01.362Z,2.66
2023-05-05T02:00:29.371Z,2.70
2023-05-05T02:03:00.129Z,2.62
2023-05-05T02:05:28.613Z,2.47
2023-05-05T02:07:59.172Z,2.54
2023-05-05T02:10:27.872Z,2.41
2023-05-05T02:12:57.274Z,2.48
2023-05-05T02:15:27.335Z,2.50
2023-05-05T02:17:56.342Z,2.56
2023-05-05T02:20:25.005Z,2.59
2023-05-05T02:22:54.056Z,2.52
2023-05-05T02:25:23.885Z,2.81
2023-05-05T02:27:57.107Z,2.49
2023-05-05T02:30:25.597Z,2.56
2023-05-05T02:33:04.840Z,2.57
2023-05-05T02:35:39.224Z,2.59
2023-05-05T02:38:17.525Z,2.62
2023-05-05T02:40:50.022Z,2.50
2023-05-05T02:43:22.072Z,2.50
2023-05-05T02:45:49.541Z,2.54
2023-05-05T02:48:18.386Z,2.40
2023-05-05T02:50:45.623Z,2.26
2023-05-05T02:53:29.493Z,2.15
2023-05-05T02:56:08.182Z,2.17
2023-05-05T02:58:51.172Z,2.10
2023-05-05T03:02:04.492Z,2.01
2023-05-05T03:04:43.030Z,1.94
2023-05-05T03:07:15.955Z,1.90
2023-05-05T03:10:08.822Z,1.90
2023-05-05T03:12:46.991Z,1.80
2023-05-05T03:15:26.648Z,1.72
2023-05-05T03:17:54.807Z,1.66
2023-05-05T03:20:23.232Z,1.48
2023-05-05T03:22:52.072Z,1.50
2023-05-05T03:25:19.668Z,1.47
2023-05-05T03:27:48.017Z,1.40
2023-05-05T03:30:20.455Z,1.50
2023-05-05T03:32:51.095Z,1.59
2023-05-05T03:35:18.750Z,1.54
2023-05-05T03:37:46.135Z,1.56
2023-05-05T03:40:16.485Z,1.59
2023-05-05T03:42:43.843Z,1.46
2023-05-05T03:45:11.559Z,1.51
2023-05-05T03:47:39.976Z,1.55
2023-05-05T03:50:09.024Z,1.65
2023-05-05T03:52:36.723Z,1.78
2023-05-05T03:55:05.237Z,1.81
2023-05-05T03:57:34.276Z,1.98
2023-05-05T04:00:02.018Z,1.98
2023-05-05T04:02:30.477Z,1.89
2023-05-05T04:04:58.236Z,1.98
2023-05-05T04:07:25.869Z,1.90
2023-05-05T04:09:53.699Z,1.85
2023-05-05T04:12:21.055Z,1.95
2023-05-05T04:14:48.635Z,2.00
2023-05-05T04:17:16.422Z,2.08
2023-05-05T04:19:44.653Z,2.13
2023-05-05T04:22:11.897Z,2.20
2023-05-05T04:24:39.737Z,2.32
2023-05-05T04:27:07.237Z,2.41
2023-05-05T04:29:35.701Z,2.29
2023-05-05T04:32:03.369Z,2.54
2023-05-05T04:34:31.217Z,2.53
2023-05-05T04:36:58.599Z,2.52
2023-05-05T04:39:26.456Z,2.69
2023-05-05T04:41:54.064Z,2.80
2023-05-05T04:44:21.737Z,2.88
2023-05-05T04:46:49.290Z,3.10
2023-05-05T04:49:17.022Z,3.19
2023-05-05T04:51:44.866Z,3.19
2023-05-05T04:54:12.566Z,3.34
2023-05-05T04:56:39.842Z,3.44
2023-05-05T04:59:07.838Z,3.57
2023-05-05T05:01:37.730Z,3.65
2023-05-05T05:04:06.116Z,3.74
2023-05-05T05:06:33.599Z,4.12
2023-05-05T05:09:01.071Z,4.16
2023-05-05T05:11:29.324Z,4.41
2023-05-05T05:13:57.026Z,4.70
2023-05-05T05:16:25.458Z,4.93
2023-05-05T05:18:53.466Z,4.99
2023-05-05T05:21:21.269Z,5.08
2023-05-05T05:23:49.275Z,4.97
2023-05-05T05:26:16.880Z,5.28
2023-05-05T05:28:44.890Z,5.42
2023-05-05T05:31:12.671Z,5.56
2023-05-05T05:33:40.332Z,5.70
2023-05-05T05:36:08.170Z,5.78
2023-05-05T05:38:36.535Z,6.12
2023-05-05T05:41:06.865Z,6.31
2023-05-05T05:43:36.033Z,6.57
2023-05-05T05:46:05.031Z,6.50
2023-05-05T05:48:34.236Z,6.54
2023-05-05T05:51:02.660Z,6.62
2023-05-05T05:53:30.439Z,6.66
2023-05-05T05:55:57.772Z,6.86
2023-05-05T05:58:25.637Z,7.10
2023-05-05T06:00:53.124Z,7.19
2023-05-05T06:03:21.239Z,7.45
2023-05-05T06:05:48.542Z,7.64
2023-05-05T06:08:16.490Z,7.86
2023-05-05T06:10:48.510Z,7.95
2023-05-05T06:13:19.617Z,8.21
2023-05-05T06:15:50.102Z,8.49
2023-05-05T06:18:18.685Z,8.66
2023-05-05T06:20:49.549Z,8.72
2023-05-05T06:23:18.607Z,8.94
2023-05-05T06:25:51.800Z,9.14
2023-05-05T06:28:19.546Z,9.43
2023-05-05T06:30:46.780Z,9.57
2023-05-05T06:33:14.461Z,9.74
2023-05-05T06:35:41.698Z,9.95
2023-05-05T06:38:09.947Z,10.09
2023-05-05T06:40:37.058Z,10.20
2023-05-05T06:43:04.861Z,10.45
2023-05-05T06:45:36.877Z,10.57
2023-05-05T06:48:04.764Z,10.68
2023-05-05T06:50:32.262Z,10.92
2023-05-05T06:52:59.861Z,11.12
2023-05-05T06:55:27.403Z,11.19
2023-05-05T06:57:55.264Z,11.51
2023-05-05T07:00:23.260Z,11.78
2023-05-05T07:02:50.793Z,12.21
2023-05-05T07:05:18.609Z,12.54
2023-05-05T07:07:56.666Z,12.89
2023-05-05T08:00:13.715Z,15.29
2023-05-05T08:02:41.861Z,15.67
2023-05-05T08:05:09.812Z,16.00
2023-05-05T08:07:41.671Z,16.48
2023-05-05T08:10:11.059Z,16.81
2023-05-05T08:12:39.103Z,16.95
2023-05-05T08:15:07.160Z,16.89
2023-05-05T08:17:49.504Z,16.78
2023-05-05T08:20:21.638Z,16.56
2023-05-05T08:22:49.916Z,16.86
2023-05-05T08:25:17.131Z,17.06
2023-05-05T08:27:45.142Z,17.41
2023-05-05T08:30:12.614Z,17.58
2023-05-05T08:32:40.621Z,17.96
2023-05-05T08:35:08.692Z,18.43
2023-05-05T08:37:36.653Z,18.62
2023-05-05T08:40:04.740Z,18.47
2023-05-05T08:42:37.073Z,18.23
2023-05-05T08:45:10.663Z,17.96
2023-05-05T08:47:42.468Z,18.13
2023-05-05T08:50:11.662Z,18.37
2023-05-05T08:52:44.125Z,18.56
2023-05-05T08:55:18.153Z,18.76
2023-05-05T08:57:55.167Z,18.98
2023-05-05T09:00:23.386Z,19.23
2023-05-05T09:02:51.389Z,19.55
2023-05-05T09:05:18.908Z,19.87
2023-05-05T09:07:47.616Z,19.84
2023-05-05T09:10:15.707Z,20.17
2023-05-05T09:12:43.829Z,20.38
2023-05-05T09:15:15.196Z,20.45
2023-05-05T09:17:43.841Z,20.58
2023-05-05T09:20:13.430Z,20.98
2023-05-05T09:22:46.958Z,21.17
2023-05-05T09:25:16.907Z,20.74
2023-05-05T09:27:49.417Z,20.98
2023-05-05T09:30:23.528Z,21.66
2023-05-05T09:32:54.159Z,21.82
2023-05-05T09:35:23.386Z,21.88
2023-05-05T09:37:51.817Z,21.83
2023-05-05T09:40:20.820Z,22.18
2023-05-05T09:42:48.966Z,22.69
2023-05-05T09:45:19.526Z,22.85
2023-05-05T09:47:49.477Z,23.25
2023-05-05T09:50:20.761Z,23.58
2023-05-05T09:53:02.319Z,24.35
2023-05-05T09:55:34.296Z,24.85
2023-05-05T09:58:20.399Z,25.60
2023-05-05T10:00:48.603Z,26.09
2023-05-05T10:03:17.966Z,26.21
2023-05-05T10:05:54.960Z,26.38
2023-05-05T10:08:24.850Z,26.82
2023-05-05T10:10:55.281Z,26.93
2023-05-05T10:13:25.181Z,27.25
2023-05-05T10:15:54.364Z,27.49
2023-05-05T10:18:27.185Z,27.48
2023-05-05T10:21:00.057Z,27.25
2023-05-05T10:23:50.968Z,26.65
2023-05-05T10:26:20.290Z,25.89
2023-05-05T10:28:51.853Z,25.61
2023-05-05T10:31:41.931Z,25.95
2023-05-05T10:34:11.362Z,26.50
2023-05-05T10:36:39.602Z,26.65
2023-05-05T10:39:09.580Z,27.29
2023-05-05T10:41:38.038Z,28.09
2023-05-05T10:44:06.946Z,28.89
2023-05-05T10:46:34.226Z,29.22
2023-05-05T10:49:19.026Z,29.57
2023-05-05T10:51:54.568Z,30.05
2023-05-05T10:54:31.255Z,30.86
2023-05-05T10:57:05.036Z,31.61
2023-05-05T10:59:39.052Z,32.42
2023-05-05T11:02:28.433Z,32.66
2023-05-05T11:05:21.759Z,32.51
2023-05-05T11:07:51.709Z,32.83
2023-05-05T11:10:21.284Z,33.22
2023-05-05T11:13:03.400Z,33.67
2023-05-05T11:15:30.899Z,33.41
2023-05-05T11:18:05.699Z,33.40
2023-05-05T11:20:37.725Z,33.44
2023-05-05T11:23:08.174Z,34.23
2023-05-05T11:25:41.575Z,34.35
2023-05-05T11:28:12.830Z,34.29
2023-05-05T11:30:56.137Z,34.70
2023-05-05T11:33:37.393Z,34.63
2023-05-05T11:36:18.833Z,34.53
2023-05-05T11:39:27.688Z,35.22
2023-05-05T11:41:58.233Z,35.43
2023-05-05T11:44:33.647Z,35.21
2023-05-05T11:47:04.526Z,35.00
2023-05-05T11:49:36.603Z,34.76
2023-05-05T11:52:12.601Z,34.66
2023-05-05T11:54:51.602Z,34.84
2023-05-05T11:57:21.914Z,35.10
2023-05-05T11:59:51.259Z,35.22
2023-05-05T12:02:20.128Z,35.53
2023-05-05T12:04:48.150Z,35.48
2023-05-05T12:07:17.197Z,35.19
2023-05-05T12:09:45.993Z,34.78
2023-05-05T12:12:14.682Z,34.27
2023-05-05T12:14:52.098Z,34.08
2023-05-05T12:17:21.637Z,33.97
2023-05-05T12:19:53.004Z,34.06
2023-05-05T12:22:22.837Z,33.94
2023-05-05T12:24:55.096Z,33.93
2023-05-05T12:27:23.362Z,34.00
2023-05-05T12:29:51.712Z,34.82
2023-05-05T12:32:27.965Z,35.28
2023-05-05T12:34:57.740Z,35.49
2023-05-05T12:37:27.709Z,35.78
2023-05-05T12:39:57.792Z,35.68
2023-05-05T12:42:25.515Z,35.43
2023-05-05T12:44:53.161Z,34.60
2023-05-05T12:47:32.262Z,34.29
2023-05-05T12:50:00.808Z,34.07
2023-05-05T12:52:44.954Z,34.20
2023-05-05T12:55:13.525Z,34.70
2023-05-05T12:58:01.625Z,35.33
2023-05-05T13:00:29.497Z,36.03
2023-05-05T13:02:58.241Z,36.72
2023-05-05T13:05:33.516Z,37.31
2023-05-05T13:08:02.256Z,37.53
2023-05-05T13:10:32.617Z,37.70
2023-05-05T13:13:00.639Z,38.43
2023-05-05T13:15:30.804Z,38.89
2023-05-05T13:18:01.463Z,38.90
2023-05-05T13:20:28.970Z,38.70
2023-05-05T13:22:57.461Z,38.56
2023-05-05T13:25:24.849Z,38.54
2023-05-05T13:27:52.524Z,38.64
2023-05-05T13:30:20.933Z,38.84
2023-05-05T13:32:48.514Z,38.64
2023-05-05T13:35:16.699Z,38.69
2023-05-05T13:37:46.260Z,39.07
2023-05-05T13:40:14.286Z,39.17
2023-05-05T13:42:42.792Z,38.86
2023-05-05T13:45:11.045Z,38.60
2023-05-05T13:47:38.766Z,38.40
2023-05-05T13:50:07.488Z,38.36
2023-05-05T13:52:35.026Z,38.58
2023-05-05T13:55:02.952Z,38.88
2023-05-05T13:57:30.553Z,37.66
2023-05-05T13:59:57.682Z,37.37
2023-05-05T14:02:25.349Z,37.68
2023-05-05T14:04:52.784Z,37.65
2023-05-05T14:07:20.440Z,37.55
2023-05-05T14:09:47.771Z,37.69
2023-05-05T14:12:17.350Z,37.61
2023-05-05T14:14:45.032Z,37.49
2023-05-05T14:17:12.997Z,37.56
2023-05-05T14:19:41.115Z,37.81
2023-05-05T14:22:08.586Z,37.81
2023-05-05T14:24:36.386Z,37.46
2023-05-05T14:27:04.916Z,37.51
2023-05-05T14:29:32.811Z,37.96
2023-05-05T14:32:00.699Z,38.14
2023-05-05T14:34:28.280Z,38.48
2023-05-05T14:36:55.574Z,38.86
2023-05-05T14:39:23.785Z,39.04
2023-05-05T14:41:51.287Z,38.94
2023-05-05T14:44:19.034Z,38.70
2023-05-05T14:46:46.858Z,38.25
2023-05-05T14:49:16.126Z,37.68
2023-05-05T14:51:44.187Z,37.90
2023-05-05T14:54:24.300Z,37.78
2023-05-05T14:56:55.656Z,37.40
2023-05-05T14:59:23.314Z,37.17
2023-05-05T15:01:51.098Z,37.18
2023-05-05T15:04:18.779Z,36.67
2023-05-05T15:06:46.229Z,36.33
2023-05-05T15:09:13.834Z,35.95
2023-05-05T15:11:45.506Z,36.28
2023-05-05T15:14:13.070Z,36.41
2023-05-05T15:16:40.424Z,36.47
2023-05-05T15:19:08.034Z,36.36
2023-05-05T15:21:35.215Z,36.07
2023-05-05T15:24:02.882Z,35.69
2023-05-05T15:26:30.096Z,35.53
2023-05-05T15:28:57.633Z,35.51
2023-05-05T15:31:24.930Z,35.11
2023-05-05T15:33:52.530Z,34.60
2023-05-05T15:36:22.810Z,33.78
2023-05-05T15:38:50.383Z,32.65
2023-05-05T15:41:17.676Z,31.52
2023-05-05T15:43:45.376Z,30.47
2023-05-05T15:46:12.617Z,29.62
2023-05-05T15:48:40.267Z,28.83
2023-05-05T15:51:07.457Z,28.12
2023-05-05T15:53:35.163Z,27.32
2023-05-05T15:56:02.840Z,26.57
2023-05-05T15:58:30.420Z,26.03
2023-05-05T16:00:57.665Z,25.56
2023-05-05T16:03:25.294Z,25.15
2023-05-05T16:05:52.685Z,24.62
2023-05-05T16:08:20.209Z,23.85
2023-05-05T16:10:47.416Z,23.36
2023-05-05T16:13:15.333Z,22.90
2023-05-05T16:15:42.727Z,22.60
2023-05-05T16:18:10.441Z,22.31
2023-05-05T16:20:37.824Z,22.05
2023-05-05T16:23:05.675Z,21.98
2023-05-05T16:25:32.996Z,21.86
2023-05-05T16:28:01.825Z,21.64
2023-05-05T16:30:29.547Z,21.44
2023-05-05T16:32:57.075Z,21.20
2023-05-05T16:35:24.313Z,21.08
2023-05-05T16:37:52.723Z,20.99
2023-05-05T16:40:20.075Z,20.76
2023-05-05T16:42:47.953Z,20.63
2023-05-05T16:45:15.161Z,20.48
2023-05-05T16:47:42.738Z,20.23
2023-05-05T16:50:10.259Z,20.05
2023-05-05T16:52:37.904Z,19.86
2023-05-05T16:55:05.978Z,19.76
2023-05-05T16:57:33.784Z,19.58
2023-05-05T17:00:01.046Z,19.45
2023-05-05T17:02:28.627Z,19.38
2023-05-05T17:04:55.910Z,19.28
2023-05-05T17:07:23.561Z,19.19
2023-05-05T17:09:51.245Z,19.18
2023-05-05T17:12:18.887Z,19.04
2023-05-05T17:21:25.137Z,18.12
2023-05-05T17:23:52.664Z,18.00
2023-05-05T17:26:19.908Z,17.96
2023-05-05T17:28:47.438Z,17.82
2023-05-05T17:31:14.847Z,17.69
2023-05-05T17:33:42.519Z,17.50
2023-05-05T17:36:10.148Z,17.31
2023-05-05T17:38:37.863Z,17.21
2023-05-05T17:41:05.110Z,16.96
2023-05-05T17:43:32.677Z,16.83
2023-05-05T17:45:59.993Z,16.70
2023-05-05T17:48:27.918Z,16.56
2023-05-05T17:50:55.338Z,16.40
2023-05-05T17:53:23.678Z,16.43
2023-05-05T17:55:50.959Z,16.31
2023-05-05T17:58:18.587Z,16.19
2023-05-05T18:00:46.662Z,16.10
2023-05-05T18:03:14.784Z,15.93
2023-05-05T18:05:42.289Z,15.87
2023-05-05T18:08:09.905Z,15.75
2023-05-05T18:10:37.376Z,15.63
2023-05-05T18:13:05.129Z,15.53
2023-05-05T18:15:32.458Z,15.47
2023-05-05T18:18:00.491Z,15.30
2023-05-05T18:20:27.785Z,15.17
2023-05-05T18:22:55.712Z,15.13
2023-05-05T18:25:23.691Z,14.96
2023-05-05T18:27:51.376Z,14.97
2023-05-05T18:30:18.712Z,14.96
2023-05-05T18:32:46.490Z,14.89
2023-05-05T18:35:14.656Z,15.20
2023-05-05T18:37:42.833Z,14.81
2023-05-05T18:40:10.849Z,14.58
2023-05-05T18:42:38.593Z,14.51
2023-05-05T18:45:07.559Z,14.34
2023-05-05T18:47:39.166Z,14.26
2023-05-05T18:50:08.648Z,14.07
2023-05-05T18:52:38.098Z,13.99
2023-05-05T18:55:05.813Z,13.83
2023-05-05T18:57:33.371Z,13.56
2023-05-05T19:00:01.258Z,13.36
2023-05-05T19:02:28.963Z,13.16
2023-05-05T19:04:56.423Z,12.98
2023-05-05T19:07:34.409Z,12.81
2023-05-05T19:10:04.947Z,12.68
2023-05-05T19:12:33.813Z,12.29
2023-05-05T19:15:01.475Z,12.33
2023-05-05T19:17:29.223Z,12.30
2023-05-05T19:19:57.984Z,12.23
2023-05-05T19:22:25.830Z,12.17
2023-05-05T19:24:53.109Z,12.00
2023-05-05T19:27:20.685Z,11.90
2023-05-05T19:29:52.335Z,11.88
2023-05-05T19:32:21.245Z,11.77
2023-05-05T19:34:48.977Z,11.65
2023-05-05T19:37:16.718Z,11.56
2023-05-05T19:39:45.880Z,11.43
2023-05-05T19:42:13.963Z,11.29
2023-05-05T19:44:41.184Z,11.30
2023-05-05T19:47:10.880Z,11.29
2023-05-05T19:49:38.458Z,11.10
2023-05-05T19:52:06.173Z,11.06
2023-05-05T19:54:33.477Z,10.97
2023-05-05T19:57:01.062Z,10.85
2023-05-05T19:59:28.345Z,10.81
2023-05-05T20:01:55.986Z,10.68
2023-05-05T20:04:23.353Z,10.46
2023-05-05T20:06:51.189Z,10.45
2023-05-05T20:09:18.820Z,10.44
2023-05-05T20:11:49.250Z,10.27
2023-05-05T20:14:16.524Z,10.23
2023-05-05T20:16:46.660Z,10.08
2023-05-05T20:19:14.090Z,10.10
2023-05-05T20:21:41.866Z,10.02
2023-05-05T20:24:10.631Z,10.06
2023-05-05T20:26:41.574Z,9.95
2023-05-05T20:29:08.820Z,9.85
2023-05-05T20:31:36.551Z,9.94
2023-05-05T20:34:04.027Z,9.97
2023-05-05T20:36:32.070Z,9.92
2023-05-05T20:38:59.503Z,9.83
2023-05-05T20:41:27.177Z,9.73
2023-05-05T20:43:54.449Z,9.64
2023-05-05T20:46:22.000Z,9.65
2023-05-05T20:48:49.305Z,9.71
2023-05-05T20:51:17.204Z,9.39
2023-05-05T20:53:44.403Z,9.51
2023-05-05T20:56:11.951Z,9.46
2023-05-05T20:58:39.085Z,9.41
2023-05-05T21:01:06.789Z,9.44
2023-05-05T21:03:34.237Z,9.41
2023-05-05T21:06:02.132Z,9.37
2023-05-05T21:08:30.268Z,9.47
2023-05-05T21:10:57.802Z,9.37
2023-05-05T21:13:25.266Z,9.37
2023-05-05T21:15:52.880Z,9.35
2023-05-05T21:18:20.350Z,9.27
2023-05-05T21:20:47.908Z,9.17
2023-05-05T21:23:15.120Z,9.11
2023-05-05T21:25:42.812Z,9.04
2023-05-05T21:28:10.126Z,8.84
2023-05-05T21:30:38.320Z,8.63
2023-05-05T21:33:05.573Z,8.59
2023-05-05T21:35:33.248Z,8.58
2023-05-05T21:38:00.756Z,8.55
2023-05-05T21:40:28.366Z,8.37
2023-05-05T21:42:55.748Z,8.46
2023-05-05T21:45:23.741Z,8.39
2023-05-05T21:47:51.106Z,8.27
2023-05-05T21:50:18.705Z,8.26
2023-05-05T21:52:45.936Z,8.23
2023-05-05T21:55:13.528Z,8.10
2023-05-05T21:57:40.726Z,8.21
2023-05-05T22:00:09.324Z,8.05
2023-05-05T22:02:45.665Z,8.13
2023-05-05T22:05:13.489Z,8.12
2023-05-05T22:07:40.909Z,8.24
2023-05-05T22:10:09.347Z,8.20
2023-05-05T22:12:39.341Z,8.04
2023-05-05T22:15:08.670Z,7.99
2023-05-05T22:17:36.448Z,7.92
2023-05-05T22:20:09.390Z,7.97
2023-05-05T22:22:36.864Z,8.09
2023-05-05T22:25:05.314Z,8.13
2023-05-05T22:27:32.556Z,8.19
2023-05-05T22:30:00.221Z,8.09
2023-05-05T22:32:27.471Z,8.05
2023-05-05T22:34:55.107Z,8.03
2023-05-05T22:37:22.769Z,7.97
2023-05-05T22:39:50.448Z,7.98
2023-05-05T22:42:17.624Z,7.87
2023-05-05T22:44:45.271Z,7.91
2023-05-05T22:47:14.977Z,8.03
2023-05-05T22:49:42.735Z,7.84
2023-05-05T22:52:09.960Z,7.84
2023-05-05T22:54:37.424Z,7.79
2023-05-05T22:57:04.606Z,7.75
2023-05-05T22:59:32.268Z,7.71
2023-05-05T23:01:59.481Z,7.70
2023-05-05T23:04:27.000Z,7.72
2023-05-05T23:06:55.283Z,7.74
2023-05-05T23:09:24.344Z,7.68
2023-05-05T23:11:51.450Z,7.51
2023-05-05T23:14:19.735Z,7.35
2023-05-05T23:16:47.026Z,7.24
2023-05-05T23:19:17.812Z,7.16
2023-05-05T23:21:52.612Z,7.23
2023-05-05T23:24:21.864Z,7.12
2023-05-05T23:26:49.172Z,6.95
2023-05-05T23:29:16.676Z,6.83
2023-05-05T23:31:43.877Z,6.98
2023-05-05T23:34:11.641Z,6.96
2023-05-05T23:36:38.780Z,6.87
2023-05-05T23:39:06.538Z,6.97
2023-05-05T23:41:33.837Z,6.83
2023-05-05T23:44:01.407Z,6.89
2023-05-05T23:46:29.406Z,6.90
2023-05-05T23:49:00.164Z,6.78
2023-05-05T23:51:27.850Z,6.71
2023-05-05T23:53:57.341Z,6.81
2023-05-05T23:56:24.780Z,6.67
2023-05-05T23:58:53.580Z,6.83
